Time;durP1;ratioP1;P1;durP2;ratioP2;P2;SDS_P1;SDS_P2;PMS_P1;PMS_P2;Temp;Humidity;BMP_temperature;BMP_pressure;BME280_temperature;BME280_humidity;BME280_pressure;Samples;Min_cycle;Max_cycle;Signal;HPM_P1;HPM_P2
2023/04/30 00:00:46;;;;;;;;;51.67;37.67;;;;;11.50;70.90;101972.56;5034311;28;45391;-68
2023/04/30 00:03:11;;;;;;;;;49.00;40.00;;;;;11.46;71.33;101960.28;5033947;28;45554;-68
2023/04/30 00:05:37;;;;;;;;;51.33;39.00;;;;;11.44;71.29;101964.72;5027800;28;45422;-67
2023/04/30 00:08:03;;;;;;;;;53.33;39.67;;;;;11.28;71.02;101937.56;5013788;28;46168;-68
2023/04/30 00:10:29;;;;;;;;;48.67;38.67;;;;;11.34;71.59;101955.09;5028320;28;45400;-67
2023/04/30 00:12:55;;;;;;;;;58.00;45.00;;;;;11.35;70.97;101961.25;5053666;28;45492;-69
2023/04/30 00:15:21;;;;;;;;;55.33;43.00;;;;;11.28;71.83;101958.66;5041119;27;45587;-68
2023/04/30 00:17:46;;;;;;;;;54.67;44.00;;;;;11.30;70.89;101958.66;5033658;28;45993;-70
2023/04/30 00:20:12;;;;;;;;;52.67;42.67;;;;;11.30;72.35;101970.06;5033719;28;45347;-69
2023/04/30 00:22:37;;;;;;;;;52.33;41.00;;;;;11.01;71.63;101912.25;5015095;27;45327;-69
2023/04/30 00:25:03;;;;;;;;;50.67;41.00;;;;;11.19;72.12;101950.78;5034291;28;45398;-67
2023/04/30 00:27:30;;;;;;;;;48.33;39.67;;;;;11.18;71.89;101956.94;5033477;28;46225;-68
2023/04/30 00:29:56;;;;;;;;;48.00;39.00;;;;;10.98;71.39;101907.88;5033514;28;45657;-68
2023/04/30 00:32:21;;;;;;;;;45.00;38.67;;;;;11.23;71.11;101949.03;5033595;28;45238;-69
2023/04/30 00:34:46;;;;;;;;;55.00;40.33;;;;;11.14;71.29;101942.91;5032131;27;45460;-68
2023/04/30 00:37:12;;;;;;;;;53.67;41.67;;;;;11.12;71.13;101947.34;5033690;27;47437;-69
2023/04/30 00:39:37;;;;;;;;;46.33;40.00;;;;;11.03;71.72;101928.91;5033595;27;45431;-68
2023/04/30 00:42:03;;;;;;;;;49.00;40.33;;;;;11.14;71.40;101944.69;5031861;28;45669;-69
2023/04/30 00:44:31;;;;;;;;;48.33;39.00;;;;;11.05;71.68;101934.19;5033534;28;45367;-69
2023/04/30 00:46:56;;;;;;;;;59.67;40.67;;;;;10.84;72.11;101911.47;5029416;28;46215;-69
2023/04/30 00:49:22;;;;;;;;;52.33;41.33;;;;;11.04;71.53;101945.63;5047962;28;45386;-69
2023/04/30 00:51:48;;;;;;;;;55.33;43.33;;;;;11.02;72.11;101942.09;5053442;28;45306;-69
2023/04/30 00:54:14;;;;;;;;;52.33;41.67;;;;;10.89;71.73;101930.75;5035909;28;45405;-69
2023/04/30 00:56:39;;;;;;;;;55.67;41.67;;;;;10.95;71.92;101942.16;5053037;28;45683;-68
2023/04/30 00:59:05;;;;;;;;;53.67;42.67;;;;;10.89;72.21;101949.19;5052338;28;45349;-69
2023/04/30 01:01:31;;;;;;;;;52.33;38.00;;;;;10.80;71.78;101931.66;5053544;28;45333;-69
2023/04/30 01:03:56;;;;;;;;;49.00;38.00;;;;;10.76;72.13;101924.66;5053523;28;45245;-70
2023/04/30 01:06:23;;;;;;;;;51.67;38.33;;;;;10.78;72.89;101926.41;5053072;28;46313;-68
2023/04/30 01:08:50;;;;;;;;;53.33;42.67;;;;;10.80;72.41;101940.47;5051376;28;45411;-69
2023/04/30 01:11:25;;;;;;;;;51.33;41.33;;;;;10.82;72.71;101947.47;5034429;28;45463;-70
2023/04/30 01:14:15;;;;;;;;;49.67;38.67;;;;;10.76;72.62;101948.38;5033297;28;45425;-69
2023/04/30 01:16:53;;;;;;;;;51.00;40.33;;;;;10.74;72.93;101940.47;5032559;28;45376;-69
2023/04/30 01:19:42;;;;;;;;;50.00;39.67;;;;;10.72;72.51;101938.75;5032761;28;45304;-69
2023/04/30 01:22:13;;;;;;;;;48.33;39.00;;;;;10.59;72.80;101922.13;5035996;28;45281;-69
2023/04/30 01:24:54;;;;;;;;;48.67;38.33;;;;;10.63;72.57;101939.66;5036123;28;45419;-70
2023/04/30 01:27:31;;;;;;;;;51.67;41.67;;;;;10.52;73.22;101918.63;5035885;28;46256;-69
2023/04/30 01:29:57;;;;;;;;;19.33;19.33;;;;;10.57;72.77;101929.13;5035764;28;45345;-69
2023/04/30 01:32:23;;;;;;;;;57.00;44.00;;;;;10.48;73.64;101919.50;5036179;28;45273;-69
2023/04/30 01:34:48;;;;;;;;;54.00;42.33;;;;;10.44;73.26;101913.38;5035847;28;45517;-70
2023/04/30 01:37:22;;;;;;;;;55.67;42.00;;;;;10.52;73.43;101934.41;5018267;28;46610;-70
2023/04/30 01:40:25;;;;;;;;;54.33;39.00;;;;;10.49;73.75;101934.44;5035844;28;45605;-70
2023/04/30 01:43:16;;;;;;;;;53.33;42.33;;;;;10.49;73.71;101938.84;4954649;28;45596;-70
2023/04/30 01:46:04;;;;;;;;;54.00;43.00;;;;;10.47;73.95;101945.84;4955116;28;45389;-70
2023/04/30 01:49:07;;;;;;;;;54.00;44.00;;;;;10.42;73.78;101938.81;4954527;28;46237;-69
2023/04/30 01:51:45;;;;;;;;;55.33;44.00;;;;;10.41;74.09;101936.19;4935396;28;45405;-69
2023/04/30 01:54:29;;;;;;;;;53.33;40.00;;;;;10.43;73.96;101940.59;4946589;28;45294;-68
2023/04/30 01:57:05;;;;;;;;;53.33;42.33;;;;;10.39;73.94;101943.25;4954796;28;45541;-70
2023/04/30 01:59:33;;;;;;;;;48.67;40.00;;;;;10.38;74.37;101944.09;4954152;28;46027;-70
2023/04/30 02:01:59;;;;;;;;;51.67;40.00;;;;;10.39;74.84;101946.75;4954838;28;45369;-70
2023/04/30 02:04:24;;;;;;;;;60.67;44.00;;;;;10.31;74.55;101930.06;4954578;28;45456;-69
2023/04/30 02:06:49;;;;;;;;;52.00;40.33;;;;;10.27;74.87;101930.97;4954964;28;45493;-70
2023/04/30 02:09:15;;;;;;;;;50.67;38.00;;;;;10.32;74.75;101941.47;4954680;28;45294;-70
2023/04/30 02:11:40;;;;;;;;;53.00;43.33;;;;;10.25;75.22;101924.78;4954683;28;45354;-70
2023/04/30 02:14:06;;;;;;;;;60.33;44.67;;;;;10.33;75.15;101944.09;4954873;28;45489;-70
2023/04/30 02:16:31;;;;;;;;;53.00;43.00;;;;;10.22;74.92;101925.72;4954924;28;45447;-70
2023/04/30 02:18:57;;;;;;;;;45.67;37.67;;;;;10.29;74.22;101937.06;4983993;28;47422;-70
2023/04/30 02:21:22;;;;;;;;;57.33;44.00;;;;;10.00;75.10;101890.63;5037280;27;45351;-69
2023/04/30 02:23:48;;;;;;;;;51.67;40.00;;;;;10.23;75.71;101929.19;5035787;28;45277;-69
2023/04/30 02:26:13;;;;;;;;;53.67;39.67;;;;;10.24;75.16;101931.84;5035826;28;45449;-70
2023/04/30 02:28:39;;;;;;;;;55.33;43.00;;;;;10.30;74.67;101941.47;5035418;28;46135;-70
2023/04/30 02:31:04;;;;;;;;;52.33;42.00;;;;;10.22;74.60;101944.13;5034989;28;45375;-67
2023/04/30 02:33:30;;;;;;;;;50.00;40.33;;;;;10.06;75.00;101927.50;5035564;28;45231;-67
2023/04/30 02:35:55;;;;;;;;;59.00;45.33;;;;;10.20;75.42;101937.97;5035685;28;45494;-68
2023/04/30 02:38:20;;;;;;;;;50.00;40.00;;;;;10.19;74.88;101949.38;5035437;28;46323;-67
2023/04/30 02:40:46;;;;;;;;;54.00;42.33;;;;;10.18;75.69;101947.66;5035300;28;45169;-67
2023/04/30 02:43:11;;;;;;;;;52.67;38.00;;;;;10.14;75.75;101940.63;5035356;28;45343;-68
2023/04/30 02:45:36;;;;;;;;;49.00;41.67;;;;;10.22;75.84;101937.97;5035541;28;45403;-68
2023/04/30 02:48:02;;;;;;;;;50.67;39.00;;;;;10.22;75.76;101932.72;5035452;28;45540;-67
2023/04/30 02:50:27;;;;;;;;;53.33;41.67;;;;;10.18;75.63;101930.94;5034015;28;45968;-67
2023/04/30 02:52:54;;;;;;;;;49.33;40.67;;;;;10.14;74.59;101929.19;5035440;28;45309;-67
2023/04/30 02:55:20;;;;;;;;;51.67;37.33;;;;;10.13;75.21;101924.84;5034841;28;45462;-67
2023/04/30 02:57:45;;;;;;;;;52.33;40.33;;;;;9.84;75.86;101875.78;5034959;28;46194;-67
2023/04/30 03:00:11;;;;;;;;;53.33;41.33;;;;;10.18;76.31;101923.97;5035167;28;45237;-67
2023/04/30 03:02:37;;;;;;;;;52.67;41.33;;;;;10.15;76.13;101915.19;5035196;28;45345;-68
2023/04/30 03:05:03;;;;;;;;;48.33;40.00;;;;;10.17;75.01;101923.97;5034807;28;45327;-68
2023/04/30 03:07:28;;;;;;;;;53.00;39.33;;;;;9.89;75.20;101887.16;5033655;28;47033;-68
2023/04/30 03:09:53;;;;;;;;;50.33;41.00;;;;;10.00;76.04;101900.31;5034969;28;45326;-68
2023/04/30 03:12:18;;;;;;;;;46.00;38.67;;;;;10.05;75.20;101911.69;5035313;28;45299;-68
2023/04/30 03:14:44;;;;;;;;;53.67;41.67;;;;;10.07;75.93;101910.81;5035072;28;45286;-68
2023/04/30 03:17:09;;;;;;;;;52.00;41.33;;;;;9.96;75.76;101886.25;5035893;27;46561;-68
2023/04/30 03:19:35;;;;;;;;;53.33;42.33;;;;;9.98;75.92;101895.03;5034784;28;45459;-68
2023/04/30 03:22:00;;;;;;;;;55.00;41.67;;;;;10.05;75.92;101909.94;5034997;28;45697;-69
2023/04/30 03:24:25;;;;;;;;;54.67;43.67;;;;;9.93;76.09;101899.41;5035157;28;45303;-69
2023/04/30 03:26:51;;;;;;;;;54.67;43.33;;;;;9.98;76.11;101916.09;5034407;28;46524;-69
2023/04/30 03:29:16;;;;;;;;;49.67;39.67;;;;;9.84;75.90;101897.69;5034820;28;45287;-69
2023/04/30 03:31:41;;;;;;;;;48.33;40.67;;;;;9.93;76.25;101916.09;5034827;28;45483;-69
2023/04/30 03:34:07;;;;;;;;;49.00;41.00;;;;;9.94;75.85;101928.34;5035048;28;45425;-68
2023/04/30 03:36:33;;;;;;;;;54.00;42.33;;;;;9.83;76.61;101906.47;5034660;28;46359;-68
2023/04/30 03:38:59;;;;;;;;;48.67;40.00;;;;;9.87;75.71;101921.34;5034344;28;45420;-68
2023/04/30 03:41:24;;;;;;;;;53.00;42.33;;;;;9.75;76.30;101913.47;5034914;28;45385;-68
2023/04/30 03:43:50;;;;;;;;;54.00;41.67;;;;;9.72;77.08;101916.97;5032243;28;45539;-68
2023/04/30 03:46:15;;;;;;;;;52.00;40.00;;;;;9.67;75.98;101913.50;5033372;28;46725;-68
2023/04/30 03:48:40;;;;;;;;;57.67;49.00;;;;;9.73;76.26;101931.91;5034510;28;45376;-68
2023/04/30 03:51:06;;;;;;;;;54.00;42.33;;;;;9.72;77.06;101938.03;5034325;28;45813;-68
2023/04/30 03:53:31;;;;;;;;;56.67;42.33;;;;;9.71;77.28;101924.88;5034724;28;45375;-68
2023/04/30 03:55:57;;;;;;;;;53.33;41.33;;;;;9.72;76.52;101930.13;5034303;28;46087;-69
2023/04/30 03:58:23;;;;;;;;;54.33;43.33;;;;;9.68;76.53;101924.88;5034476;28;45402;-70
2023/04/30 04:00:48;;;;;;;;;57.33;42.00;;;;;9.65;76.52;101923.13;5035353;27;45456;-70
2023/04/30 04:03:15;;;;;;;;;51.67;43.00;;;;;9.57;77.29;101917.00;5034356;28;45395;-70
2023/04/30 04:05:40;;;;;;;;;52.67;39.00;;;;;9.62;77.69;101914.38;5033916;28;47401;-70
2023/04/30 04:08:06;;;;;;;;;60.00;46.67;;;;;9.58;77.34;101909.13;5033955;28;45315;-70
2023/04/30 04:10:32;;;;;;;;;50.33;41.67;;;;;9.64;77.06;101916.09;5034250;28;45306;-70
2023/04/30 04:12:58;;;;;;;;;54.33;42.00;;;;;9.63;77.71;101910.84;5034324;28;45441;-71
2023/04/30 04:15:23;;;;;;;;;49.33;36.67;;;;;9.64;76.70;101917.84;5033357;28;45434;-70
2023/04/30 04:17:48;;;;;;;;;51.00;42.00;;;;;9.54;77.58;101898.56;5032799;28;45505;-71
2023/04/30 04:20:14;;;;;;;;;48.67;39.00;;;;;9.56;76.92;101910.84;5033959;28;45339;-71
2023/04/30 04:22:39;;;;;;;;;46.00;37.00;;;;;9.55;77.74;101909.09;5034445;28;45412;-71
2023/04/30 04:25:05;;;;;;;;;54.33;41.33;;;;;9.50;77.34;101897.72;5033580;28;46073;-71
2023/04/30 04:27:31;;;;;;;;;57.33;44.33;;;;;9.58;77.53;101913.47;5033809;28;45434;-70
2023/04/30 04:29:56;;;;;;;;;52.00;39.67;;;;;9.52;76.94;101900.34;5034026;28;45411;-71
2023/04/30 04:32:22;;;;;;;;;54.00;42.33;;;;;9.53;77.10;101921.38;5033967;28;45300;-70
2023/04/30 04:34:48;;;;;;;;;46.00;39.33;;;;;9.49;76.50;101916.09;5033547;28;47155;-70
2023/04/30 04:37:14;;;;;;;;;52.00;39.67;;;;;9.41;77.67;101914.34;5033663;28;45315;-70
2023/04/30 04:39:39;;;;;;;;;52.67;40.33;;;;;9.45;77.21;101925.72;5033837;27;45728;-70
2023/04/30 04:42:05;;;;;;;;;52.00;41.00;;;;;9.49;78.05;101918.75;5033452;28;45577;-70
2023/04/30 04:44:31;;;;;;;;;50.33;42.00;;;;;9.49;77.51;101908.22;5033418;28;47434;-70
2023/04/30 04:46:56;;;;;;;;;56.00;43.67;;;;;9.57;77.09;101917.88;5026872;28;45549;-70
2023/04/30 04:49:22;;;;;;;;;54.00;42.00;;;;;9.65;77.58;101931.00;5017536;28;45253;-70
2023/04/30 04:51:47;;;;;;;;;51.33;40.00;;;;;9.58;76.92;101910.84;5019433;28;45499;-71
2023/04/30 04:54:12;;;;;;;;;47.67;38.00;;;;;9.62;77.08;101911.75;5018702;28;46137;-71
2023/04/30 04:56:38;;;;;;;;;47.33;39.00;;;;;9.79;76.75;101928.38;5036534;28;45427;-70
2023/04/30 04:59:03;;;;;;;;;49.33;38.33;;;;;9.81;76.14;101924.00;5044275;28;45296;-71
2023/04/30 05:01:28;;;;;;;;;54.00;38.00;;;;;9.78;76.40;101917.88;5037665;27;45265;-69
2023/04/30 05:03:54;;;;;;;;;51.33;42.33;;;;;9.97;75.39;101924.84;5036528;28;46084;-70
2023/04/30 05:06:19;;;;;;;;;51.67;40.33;;;;;10.00;75.05;101927.47;5028126;28;45315;-70
2023/04/30 05:08:44;;;;;;;;;47.67;38.00;;;;;10.04;74.70;101928.38;5024974;28;45478;-70
2023/04/30 05:11:11;;;;;;;;;47.33;37.67;;;;;10.09;75.37;101934.47;5016822;27;45454;-70
2023/04/30 05:13:36;;;;;;;;;54.67;42.33;;;;;10.05;74.83;101928.34;5016329;28;46230;-70
2023/04/30 05:16:02;;;;;;;;;52.67;40.67;;;;;10.15;74.66;101936.22;5034246;28;45311;-70
2023/04/30 05:18:27;;;;;;;;;52.33;37.33;;;;;10.19;74.37;101933.59;5055164;27;45361;-70
2023/04/30 05:20:52;;;;;;;;;48.67;39.33;;;;;10.34;74.42;101938.00;5056435;28;45491;-70
2023/04/30 05:23:18;;;;;;;;;51.00;38.33;;;;;10.53;74.05;101949.34;5035302;28;47399;-71
2023/04/30 05:25:44;;;;;;;;;47.00;37.33;;;;;10.89;73.30;101930.75;5036199;28;45272;-71
2023/04/30 05:28:10;;;;;;;;;48.67;39.33;;;;;11.37;70.92;101943.66;5036249;28;45230;-69
2023/04/30 05:30:35;;;;;;;;;51.67;39.67;;;;;11.74;69.48;101933.69;5036463;28;45286;-69
2023/04/30 05:33:00;;;;;;;;;38.67;34.00;;;;;11.70;68.47;101933.75;5035670;28;46400;-69
2023/04/30 05:35:26;;;;;;;;;43.33;35.00;;;;;11.61;68.38;101937.34;5036230;28;45331;-69
2023/04/30 05:37:51;;;;;;;;;41.00;36.67;;;;;11.38;68.23;101919.91;5036113;28;45548;-70
2023/04/30 05:40:17;;;;;;;;;46.67;37.00;;;;;11.44;68.78;101929.53;5036430;28;45375;-71
2023/04/30 05:42:42;;;;;;;;;49.33;38.00;;;;;11.33;68.62;101935.75;5035946;28;45380;-70
2023/04/30 05:45:09;;;;;;;;;45.00;35.33;;;;;11.18;69.34;101929.72;5035585;28;45421;-71
2023/04/30 05:47:35;;;;;;;;;41.67;34.67;;;;;11.15;69.40;101938.50;5035990;28;45389;-71
2023/04/30 05:50:00;;;;;;;;;48.00;35.33;;;;;11.08;69.16;101929.78;5036185;28;45274;-71
2023/04/30 05:52:26;;;;;;;;;39.00;31.00;;;;;11.08;69.33;101947.34;5035613;28;46542;-71
2023/04/30 05:54:51;;;;;;;;;42.00;35.00;;;;;11.00;69.68;101944.75;5035741;28;45286;-71
2023/04/30 05:57:16;;;;;;;;;46.33;36.67;;;;;11.06;69.98;101944.72;5034195;28;45351;-71
2023/04/30 05:59:42;;;;;;;;;43.67;35.33;;;;;11.01;69.84;101943.88;5037244;28;45329;-69
2023/04/30 06:02:07;;;;;;;;;41.33;33.67;;;;;11.04;70.34;101938.59;5035843;28;45369;-71
2023/04/30 06:04:33;;;;;;;;;39.67;32.67;;;;;11.10;70.09;101935.03;5035810;28;45398;-71
2023/04/30 06:06:58;;;;;;;;;40.33;33.00;;;;;11.12;69.38;101935.91;5034611;27;45227;-71
2023/04/30 06:09:24;;;;;;;;;36.00;32.33;;;;;11.15;69.39;101934.13;5035976;28;45455;-72
2023/04/30 06:11:50;;;;;;;;;43.67;34.67;;;;;11.18;69.14;101935.84;5035478;28;46645;-72
2023/04/30 06:14:17;;;;;;;;;40.00;32.00;;;;;11.20;69.59;101926.19;5035742;28;45206;-72
2023/04/30 06:16:44;;;;;;;;;37.33;32.33;;;;;11.08;70.10;101900.78;5035638;28;45309;-72
2023/04/30 06:19:09;;;;;;;;;34.33;32.33;;;;;11.30;68.88;101934.94;5035700;28;45255;-72
2023/04/30 06:21:35;;;;;;;;;36.00;31.00;;;;;11.37;69.23;101936.63;5035312;28;45966;-72
2023/04/30 06:24:00;;;;;;;;;38.67;31.00;;;;;11.47;68.86;101932.16;5035447;28;45223;-72
2023/04/30 06:26:26;;;;;;;;;33.33;31.33;;;;;11.98;67.65;101934.38;5035780;28;45421;-72
2023/04/30 06:28:51;;;;;;;;;37.00;32.00;;;;;12.96;65.15;101944.75;5035578;28;45358;-70
2023/04/30 06:31:17;;;;;;;;;30.33;29.33;;;;;13.55;62.36;101928.94;5035609;28;45393;-71
2023/04/30 06:33:42;;;;;;;;;37.00;33.00;;;;;13.53;61.58;101905.13;5035413;28;45370;-70
2023/04/30 06:36:07;;;;;;;;;37.67;33.67;;;;;13.60;61.47;101935.00;5035341;28;45508;-70
2023/04/30 06:38:33;;;;;;;;;34.00;31.00;;;;;14.03;61.74;101947.53;5035675;28;45220;-70
2023/04/30 06:40:58;;;;;;;;;34.33;28.00;;;;;14.12;60.50;101943.84;5035270;28;46212;-67
2023/04/30 06:43:23;;;;;;;;;34.00;32.00;;;;;14.18;59.97;101942.84;5035382;27;45245;-67
2023/04/30 06:45:49;;;;;;;;;38.33;32.00;;;;;13.96;60.21;101942.38;5035250;28;45323;-68
2023/04/30 06:48:14;;;;;;;;;36.00;28.67;;;;;13.83;60.39;101944.34;5035326;28;45377;-68
2023/04/30 06:50:43;;;;;;;;;33.67;28.00;;;;;13.71;61.79;101946.31;5033908;28;47184;-68
2023/04/30 06:53:10;;;;;;;;;30.67;29.00;;;;;13.71;60.98;101946.31;5034862;27;45491;-68
2023/04/30 06:55:36;;;;;;;;;30.67;27.67;;;;;13.28;62.04;101895.81;5035395;28;45292;-68
2023/04/30 06:58:01;;;;;;;;;32.33;29.00;;;;;13.55;62.37;101955.41;5035021;28;45525;-68
2023/04/30 07:00:27;;;;;;;;;31.33;27.67;;;;;13.57;61.31;101943.00;5034977;28;45449;-68
2023/04/30 07:02:52;;;;;;;;;28.67;25.33;;;;;13.75;62.22;101958.59;5035259;27;45361;-68
2023/04/30 07:05:18;;;;;;;;;31.33;28.00;;;;;13.80;60.72;101947.06;5034969;28;45461;-67
2023/04/30 07:07:43;;;;;;;;;30.00;27.67;;;;;13.74;61.27;101942.75;5033936;27;45549;-67
2023/04/30 07:10:08;;;;;;;;;29.67;26.67;;;;;13.73;62.00;101955.06;5034825;28;45264;-70
2023/04/30 07:12:34;;;;;;;;;32.00;31.00;;;;;13.71;62.25;101945.44;5034737;28;45346;-70
2023/04/30 07:14:59;;;;;;;;;54.67;42.33;;;;;13.75;62.40;101949.75;5035293;28;45414;-70
2023/04/30 07:17:24;;;;;;;;;37.33;32.67;;;;;13.79;62.55;101951.47;5034987;28;45294;-70
2023/04/30 07:19:50;;;;;;;;;39.00;32.00;;;;;13.77;61.96;101950.63;5034820;28;46201;-70
2023/04/30 07:22:15;;;;;;;;;31.00;27.33;;;;;13.82;62.19;101939.94;5034782;28;45212;-70
2023/04/30 07:24:40;;;;;;;;;28.00;25.00;;;;;13.84;61.34;101924.91;5035107;28;45395;-67
2023/04/30 07:27:06;;;;;;;;;25.67;25.67;;;;;14.18;61.98;101935.75;5034808;28;45305;-67
2023/04/30 07:29:32;;;;;;;;;35.00;30.33;;;;;14.55;61.42;101937.72;5034396;28;46427;-67
2023/04/30 07:31:57;;;;;;;;;32.67;30.67;;;;;14.66;60.20;101939.31;5034772;28;45158;-69
2023/04/30 07:34:24;;;;;;;;;38.33;32.33;;;;;15.08;59.05;101949.91;5034882;28;45438;-70
2023/04/30 07:36:49;;;;;;;;;32.33;29.00;;;;;15.19;58.55;101939.03;5034753;28;45319;-70
2023/04/30 07:39:15;;;;;;;;;37.33;33.67;;;;;15.49;58.43;101945.41;5034311;28;46340;-68
2023/04/30 07:41:41;;;;;;;;;41.33;33.00;;;;;15.84;56.57;101935.72;5034510;28;45469;-70
2023/04/30 07:44:06;;;;;;;;;32.33;29.67;;;;;15.84;57.02;101949.00;5034024;28;45303;-70
2023/04/30 07:46:32;;;;;;;;;35.00;30.00;;;;;15.95;56.65;101949.59;5034693;28;45278;-70
2023/04/30 07:48:58;;;;;;;;;42.33;34.00;;;;;16.32;55.72;101942.41;5034376;28;46643;-70
2023/04/30 07:51:23;;;;;;;;;35.67;33.33;;;;;17.95;53.33;101947.22;5034376;28;45487;-68
2023/04/30 07:53:49;;;;;;;;;25.67;24.33;;;;;20.32;49.22;101912.13;5034247;28;45402;-68
2023/04/30 07:56:14;;;;;;;;;31.67;29.33;;;;;21.46;44.76;101946.06;5034828;28;45489;-69
2023/04/30 07:58:40;;;;;;;;;35.67;30.33;;;;;21.64;44.23;101922.84;5034141;28;46296;-68
2023/04/30 08:01:05;;;;;;;;;30.67;27.67;;;;;21.54;43.13;101939.41;5034017;28;45449;-68
2023/04/30 08:03:31;;;;;;;;;30.33;28.00;;;;;20.87;44.35;101936.34;5034579;28;45405;-68
2023/04/30 08:05:56;;;;;;;;;26.67;26.67;;;;;20.92;43.61;101941.50;5034510;28;45429;-68
2023/04/30 08:08:21;;;;;;;;;33.33;28.00;;;;;21.89;43.04;101919.81;5033756;28;45352;-68
2023/04/30 08:10:47;;;;;;;;;32.00;25.00;;;;;21.43;43.37;101936.34;5033871;28;45302;-68
2023/04/30 08:13:12;;;;;;;;;31.33;25.00;;;;;20.53;45.05;101903.13;5034319;28;45413;-68
2023/04/30 08:15:38;;;;;;;;;32.67;26.67;;;;;20.12;46.17;101935.25;5034336;28;45261;-68
2023/04/30 08:18:04;;;;;;;;;27.33;24.67;;;;;19.73;46.37;101922.66;5033781;28;47253;-69
2023/04/30 08:20:31;;;;;;;;;19.67;17.00;;;;;19.30;47.32;101913.75;5033999;28;45349;-68
2023/04/30 08:22:56;;;;;;;;;24.67;22.00;;;;;18.89;48.01;101902.94;5033865;28;45488;-70
2023/04/30 08:25:22;;;;;;;;;27.67;27.00;;;;;18.80;47.58;101934.34;5034097;28;45330;-69
2023/04/30 08:27:47;;;;;;;;;24.00;22.00;;;;;18.64;48.97;101914.50;5033685;28;45344;-69
2023/04/30 08:30:13;;;;;;;;;23.00;21.67;;;;;18.85;47.74;101925.28;5035226;28;45426;-69
2023/04/30 08:32:38;;;;;;;;;22.67;20.00;;;;;18.82;48.11;101922.75;5037006;28;45310;-70
2023/04/30 08:35:05;;;;;;;;;23.00;21.67;;;;;19.06;47.05;101929.81;5037065;28;45396;-71
2023/04/30 08:37:30;;;;;;;;;23.67;19.67;;;;;19.36;48.10;101928.66;5036446;28;46917;-70
2023/04/30 08:39:56;;;;;;;;;22.00;20.33;;;;;19.35;46.52;101922.44;5036808;28;45254;-70
2023/04/30 08:42:28;;;;;;;;;21.67;20.33;;;;;19.11;48.11;101914.50;5037338;27;45387;-69
2023/04/30 08:44:54;;;;;;;;;19.00;19.00;;;;;19.05;47.07;101925.41;5035944;28;45300;-67
2023/04/30 08:47:20;;;;;;;;;18.00;18.00;;;;;19.01;46.35;101933.59;5036209;27;46838;-68
2023/04/30 08:49:46;;;;;;;;;21.67;16.33;;;;;18.80;46.36;101921.00;5035607;28;45496;-68
2023/04/30 08:52:11;;;;;;;;;21.33;21.00;;;;;18.77;47.16;101920.25;5036885;28;45392;-69
2023/04/30 08:54:37;;;;;;;;;24.67;20.67;;;;;18.42;47.49;101887.78;5035685;28;45505;-69
2023/04/30 08:57:03;;;;;;;;;21.33;20.33;;;;;18.55;47.81;101923.75;5036357;27;45573;-69
2023/04/30 08:59:29;;;;;;;;;31.33;22.00;;;;;18.51;47.75;101919.44;5036321;27;45533;-69
2023/04/30 09:01:54;;;;;;;;;25.67;23.33;;;;;18.59;47.63;101928.03;5036487;27;45323;-69
2023/04/30 09:04:20;;;;;;;;;27.00;23.33;;;;;18.68;47.33;101929.47;5036676;28;45409;-68
2023/04/30 09:06:45;;;;;;;;;19.33;16.33;;;;;18.83;47.60;101921.81;5035884;28;45472;-69
2023/04/30 09:09:14;;;;;;;;;22.00;19.67;;;;;18.82;46.18;101925.41;5036187;28;45765;-68
2023/04/30 09:11:40;;;;;;;;;23.67;21.67;;;;;18.76;47.04;101914.06;5036545;28;45490;-69
2023/04/30 09:14:07;;;;;;;;;21.67;18.00;;;;;18.77;46.54;101914.94;5035520;28;45363;-68
2023/04/30 09:16:50;;;;;;;;;27.33;20.33;;;;;18.87;46.23;101920.81;5035909;28;46527;-69
2023/04/30 09:19:26;;;;;;;;;17.33;15.67;;;;;19.03;46.13;101908.59;5035601;28;45431;-69
2023/04/30 09:21:52;;;;;;;;;18.00;18.00;;;;;19.25;46.13;101910.41;5036146;28;45351;-68
2023/04/30 09:24:17;;;;;;;;;23.67;20.67;;;;;19.29;46.03;101893.34;5034916;27;45709;-68
2023/04/30 09:26:45;;;;;;;;;23.00;18.67;;;;;19.48;46.02;101898.78;5036174;28;45345;-68
2023/04/30 09:29:11;;;;;;;;;19.67;16.33;;;;;19.90;45.70;101913.94;5035429;28;45311;-69
2023/04/30 09:31:37;;;;;;;;;20.67;19.67;;;;;20.21;44.54;101903.72;5016299;28;45447;-69
2023/04/30 09:34:04;;;;;;;;;23.67;18.00;;;;;20.36;44.88;101895.00;5027372;28;45316;-69
2023/04/30 09:36:30;;;;;;;;;24.33;21.33;;;;;20.42;43.39;101908.09;5035810;28;45346;-69
2023/04/30 09:39:04;;;;;;;;;25.00;22.67;;;;;20.38;44.22;101897.59;5043355;27;45401;-74
2023/04/30 09:41:30;;;;;;;;;24.00;18.67;;;;;20.63;43.94;101873.25;5054732;28;45324;-74
2023/04/30 09:43:56;;;;;;;;;25.33;24.00;;;;;21.52;41.84;101908.25;5055873;28;45503;-69
2023/04/30 09:46:30;;;;;;;;;28.67;24.00;;;;;23.07;40.75;101903.63;5055891;28;45657;-69
2023/04/30 09:49:00;;;;;;;;;32.00;27.67;;;;;24.66;38.18;101892.28;5055882;28;45325;-69
2023/04/30 09:51:26;;;;;;;;;25.00;23.33;;;;;26.36;35.70;101896.22;5039296;28;45466;-69
2023/04/30 09:53:53;;;;;;;;;26.67;25.33;;;;;27.72;33.28;101888.91;5035930;28;45460;-70
2023/04/30 09:56:24;;;;;;;;;22.67;21.33;;;;;29.10;35.39;101889.66;5035483;28;46396;-68
2023/04/30 09:58:52;;;;;;;;;18.67;18.67;;;;;30.38;30.17;101890.44;5035539;28;45329;-69
2023/04/30 10:01:25;;;;;;;;;19.67;17.33;;;;;31.54;29.23;101893.50;5035958;28;45382;-69
2023/04/30 10:03:50;;;;;;;;;20.67;20.67;;;;;32.19;27.42;101851.94;5036090;28;45322;-69
2023/04/30 10:06:18;;;;;;;;;21.00;20.33;;;;;33.12;26.00;101870.06;5035143;28;46269;-69
2023/04/30 10:08:47;;;;;;;;;26.67;23.67;;;;;33.78;28.61;101879.69;5034809;28;45381;-69
2023/04/30 10:11:20;;;;;;;;;22.00;21.00;;;;;34.16;24.94;101877.53;5035612;28;45292;-68
2023/04/30 10:14:00;;;;;;;;;23.00;19.67;;;;;34.05;26.34;101877.78;5035381;28;45520;-69
2023/04/30 10:16:44;;;;;;;;;21.00;20.00;;;;;33.92;22.36;101877.38;5034560;28;46294;-69
2023/04/30 10:19:14;;;;;;;;;21.67;20.67;;;;;33.75;24.67;101874.56;5035250;28;45384;-68
2023/04/30 10:21:41;;;;;;;;;24.00;21.33;;;;;33.35;23.07;101870.47;5035405;28;45345;-68
2023/04/30 10:24:09;;;;;;;;;15.33;13.33;;;;;33.20;24.87;101877.47;5035666;28;45442;-69
2023/04/30 10:26:34;;;;;;;;;23.00;19.00;;;;;33.02;25.16;101875.59;5034367;28;47074;-68
2023/04/30 10:29:01;;;;;;;;;20.33;18.67;;;;;33.12;23.14;101870.91;5035010;28;45305;-69
2023/04/30 10:31:27;;;;;;;;;23.00;21.00;;;;;32.89;22.31;101856.88;5035287;28;45749;-68
2023/04/30 10:33:57;;;;;;;;;23.67;21.33;;;;;32.94;23.56;101870.06;5035316;28;45580;-68
2023/04/30 10:36:32;;;;;;;;;24.00;17.33;;;;;32.31;23.63;101835.41;5035106;28;45353;-69
2023/04/30 10:38:58;;;;;;;;;18.00;18.00;;;;;31.78;22.31;101845.91;5034719;28;45227;-69
2023/04/30 10:41:26;;;;;;;;;21.67;19.00;;;;;31.31;25.34;101853.97;5034902;28;45375;-69
2023/04/30 10:43:56;;;;;;;;;27.00;24.00;;;;;30.90;25.93;101848.63;5034495;28;45486;-69
2023/04/30 10:46:22;;;;;;;;;21.00;21.00;;;;;30.66;24.61;101847.19;5034272;28;46693;-69
2023/04/30 10:48:48;;;;;;;;;22.33;21.00;;;;;30.49;26.00;101832.41;5034714;28;45302;-69
2023/04/30 10:51:14;;;;;;;;;25.33;21.00;;;;;30.20;25.54;101837.72;5030253;27;45597;-68
2023/04/30 10:53:41;;;;;;;;;19.67;18.00;;;;;29.39;26.78;101830.22;5062536;27;45502;-68
2023/04/30 10:56:10;;;;;;;;;22.00;19.00;;;;;28.84;27.28;101835.75;5054299;28;46410;-68
2023/04/30 10:58:37;;;;;;;;;23.33;21.67;;;;;28.02;26.93;101826.09;5054938;28;45340;-68
2023/04/30 11:01:10;;;;;;;;;22.67;19.00;;;;;27.30;27.68;101783.84;5055131;28;45368;-69
2023/04/30 11:03:39;;;;;;;;;21.00;19.00;;;;;27.06;28.66;101822.63;5046497;28;45450;-69
2023/04/30 11:06:10;;;;;;;;;16.33;14.33;;;;;26.53;29.03;101811.25;5034624;28;46325;-69
2023/04/30 11:08:37;;;;;;;;;13.33;13.33;;;;;26.00;29.05;101806.09;5034713;27;45357;-69